createdAt,value
2023-01-09T00:01:23.955Z,2.67
2023-01-09T00:03:52.084Z,2.05
2023-01-09T00:06:21.586Z,3.47
2023-01-09T00:08:49.433Z,3.72
2023-01-09T00:11:16.730Z,4.05
2023-01-09T00:13:43.631Z,1.70
2023-01-09T00:16:10.503Z,2.25
2023-01-09T00:18:37.405Z,5.10
2023-01-09T00:21:07.071Z,2.78
2023-01-09T00:23:36.629Z,3.17
2023-01-09T00:26:14.083Z,3.15
2023-01-09T00:28:41.229Z,3.70
2023-01-09T00:31:09.032Z,2.40
2023-01-09T00:33:42.480Z,2.28
2023-01-09T00:36:10.207Z,2.67
2023-01-09T00:38:37.547Z,2.58
2023-01-09T00:41:12.023Z,3.20
2023-01-09T00:43:46.637Z,2.22
2023-01-09T00:46:15.336Z,3.53
2023-01-09T00:48:45.130Z,4.43
2023-01-09T00:51:11.918Z,3.35
2023-01-09T00:53:41.665Z,2.92
2023-01-09T00:56:13.696Z,2.95
2023-01-09T00:58:42.615Z,4.03
2023-01-09T01:01:09.414Z,9.60
2023-01-09T01:03:36.285Z,3.28
2023-01-09T01:06:21.772Z,2.92
2023-01-09T01:08:48.644Z,3.67
2023-01-09T01:11:15.495Z,5.95
2023-01-09T01:13:42.254Z,3.20
2023-01-09T01:16:12.326Z,6.72
2023-01-09T01:18:40.188Z,3.08
2023-01-09T01:21:12.304Z,5.57
2023-01-09T01:23:39.622Z,2.92
2023-01-09T01:26:11.377Z,5.18
2023-01-09T01:28:38.251Z,3.13
2023-01-09T01:31:05.635Z,5.25
2023-01-09T01:33:34.324Z,7.47
2023-01-09T01:36:08.915Z,5.85
2023-01-09T01:38:37.197Z,6.88
2023-01-09T01:41:04.698Z,3.97
2023-01-09T01:43:56.605Z,6.28
2023-01-09T01:46:23.510Z,2.53
2023-01-09T01:48:56.050Z,4.10
2023-01-09T01:51:25.225Z,5.80
2023-01-09T01:53:55.957Z,4.20
2023-01-09T01:56:32.810Z,3.38
2023-01-09T01:59:03.677Z,5.90
2023-01-09T02:01:31.478Z,4.75
2023-01-09T02:04:01.643Z,3.58
2023-01-09T02:06:30.599Z,3.35
2023-01-09T02:08:57.725Z,5.53
2023-01-09T02:11:25.210Z,4.00
2023-01-09T02:13:52.694Z,7.43
2023-01-09T02:16:38.705Z,4.50
2023-01-09T02:19:14.339Z,4.53
2023-01-09T02:21:41.448Z,6.15
2023-01-09T02:24:25.093Z,4.15
2023-01-09T02:27:01.939Z,4.55
2023-01-09T02:30:07.265Z,5.05
2023-01-09T02:32:55.170Z,4.93
2023-01-09T02:35:39.706Z,5.35
2023-01-09T02:38:15.379Z,6.03
2023-01-09T02:41:03.717Z,4.55
2023-01-09T02:43:32.324Z,9.63
2023-01-09T02:46:00.526Z,6.22
2023-01-09T02:48:28.547Z,6.20
2023-01-09T02:51:07.707Z,5.70
2023-01-09T02:53:46.637Z,4.93
2023-01-09T02:56:28.629Z,6.78
2023-01-09T02:59:23.513Z,9.18
2023-01-09T03:02:22.696Z,4.47
2023-01-09T03:05:06.795Z,2.72
2023-01-09T03:07:40.303Z,3.63
2023-01-09T03:10:16.059Z,6.30
2023-01-09T03:12:44.925Z,3.75
2023-01-09T03:15:15.074Z,5.90
2023-01-09T03:17:47.057Z,5.78
2023-01-09T03:20:17.999Z,4.13
2023-01-09T03:22:55.433Z,7.40
2023-01-09T03:25:22.577Z,9.65
2023-01-09T03:27:56.252Z,4.13
2023-01-09T03:32:49.942Z,7.15
2023-01-09T03:35:16.558Z,4.53
2023-01-09T03:37:43.250Z,9.63
2023-01-09T03:40:10.794Z,4.90
2023-01-09T03:42:37.538Z,7.05
2023-01-09T03:45:05.037Z,8.75
2023-01-09T03:47:32.082Z,5.47
2023-01-09T03:49:59.243Z,6.55
2023-01-09T03:52:34.096Z,4.35
2023-01-09T03:55:02.951Z,3.58
2023-01-09T03:57:29.702Z,7.30
2023-01-09T03:59:56.514Z,7.70
2023-01-09T04:02:24.608Z,11.38
2023-01-09T04:04:52.684Z,3.33
2023-01-09T04:07:20.081Z,4.80
2023-01-09T04:09:51.387Z,10.25
2023-01-09T04:12:18.300Z,8.68
2023-01-09T04:14:44.957Z,4.07
2023-01-09T04:17:12.458Z,7.68
2023-01-09T04:19:39.171Z,3.90
2023-01-09T04:22:06.179Z,3.28
2023-01-09T04:24:33.065Z,7.45
2023-01-09T04:27:01.068Z,7.18
2023-01-09T04:29:27.771Z,4.75
2023-01-09T04:31:54.720Z,5.70
2023-01-09T04:34:25.661Z,5.30
2023-01-09T04:36:53.242Z,3.03
2023-01-09T04:39:19.934Z,4.95
2023-01-09T04:41:49.602Z,3.53
2023-01-09T04:44:28.728Z,5.80
2023-01-09T04:46:58.976Z,2.50
2023-01-09T04:49:26.098Z,5.18
2023-01-09T04:51:53.658Z,5.60
2023-01-09T04:54:20.957Z,7.13
2023-01-09T04:56:49.325Z,7.45
2023-01-09T04:59:16.204Z,5.35
2023-01-09T05:01:43.333Z,8.15
2023-01-09T05:04:11.229Z,10.52
2023-01-09T05:06:37.957Z,6.32
2023-01-09T05:09:04.715Z,7.70
2023-01-09T05:11:31.518Z,8.05
2023-01-09T05:13:58.345Z,8.82
2023-01-09T05:16:27.905Z,6.53
2023-01-09T05:18:57.171Z,4.80
2023-01-09T05:21:24.647Z,6.95
2023-01-09T05:23:51.753Z,7.85
2023-01-09T05:26:23.268Z,5.10
2023-01-09T05:28:56.374Z,10.52
2023-01-09T05:31:25.554Z,8.00
2023-01-09T05:33:53.019Z,8.13
2023-01-09T05:36:19.676Z,5.85
2023-01-09T05:38:46.322Z,6.40
2023-01-09T05:41:13.040Z,6.97
2023-01-09T05:43:39.992Z,5.38
2023-01-09T05:46:06.923Z,5.07
2023-01-09T05:48:33.848Z,7.30
2023-01-09T05:51:00.542Z,5.07
2023-01-09T05:53:27.139Z,5.65
2023-01-09T05:55:53.884Z,11.23
2023-01-09T05:58:21.178Z,8.23
2023-01-09T06:00:48.635Z,8.55
2023-01-09T06:03:15.332Z,10.73
2023-01-09T06:05:41.990Z,9.63
2023-01-09T06:08:09.093Z,5.13
2023-01-09T06:10:35.962Z,11.07
2023-01-09T06:13:02.932Z,11.32
2023-01-09T06:15:29.668Z,11.07
2023-01-09T06:17:56.286Z,10.15
2023-01-09T06:20:22.927Z,6.10
2023-01-09T06:22:52.291Z,5.53
2023-01-09T06:25:20.213Z,12.20
2023-01-09T06:27:47.102Z,7.53
2023-01-09T06:30:14.091Z,6.35
2023-01-09T06:32:40.891Z,8.82
2023-01-09T06:35:08.233Z,7.57
2023-01-09T06:37:35.133Z,8.73
2023-01-09T06:40:02.103Z,5.15
2023-01-09T06:42:28.857Z,7.00
2023-01-09T06:44:55.616Z,10.55
2023-01-09T06:47:22.357Z,7.25
2023-01-09T06:49:49.080Z,9.68
2023-01-09T06:52:15.789Z,3.75
2023-01-09T06:54:42.620Z,6.75
2023-01-09T06:57:10.713Z,9.05
2023-01-09T06:59:37.473Z,6.38
2023-01-09T07:02:04.222Z,4.55
2023-01-09T07:04:31.225Z,6.30
2023-01-09T07:06:57.885Z,6.82
2023-01-09T07:09:24.646Z,7.72
2023-01-09T07:11:51.319Z,35.22
2023-01-09T07:14:19.332Z,7.22
2023-01-09T07:16:45.962Z,6.80
2023-01-09T07:19:12.927Z,11.93
2023-01-09T07:21:39.669Z,12.75
2023-01-09T07:24:06.558Z,8.20
2023-01-09T07:26:33.627Z,6.32
2023-01-09T07:29:00.379Z,4.65
2023-01-09T07:31:27.129Z,7.38
2023-01-09T07:33:53.990Z,8.70
2023-01-09T07:36:20.827Z,11.10
2023-01-09T07:38:47.549Z,6.32
2023-01-09T07:41:14.423Z,9.85
2023-01-09T07:43:41.063Z,5.47
2023-01-09T07:46:07.852Z,7.63
2023-01-09T07:48:34.664Z,11.50
2023-01-09T07:51:01.366Z,10.55
2023-01-09T07:53:28.145Z,3.53
2023-01-09T07:55:54.995Z,7.70
2023-01-09T07:58:22.036Z,7.63
2023-01-09T08:00:51.214Z,8.80
2023-01-09T08:03:17.943Z,9.27
2023-01-09T08:05:45.987Z,7.25
2023-01-09T08:08:15.751Z,9.40
2023-01-09T08:10:42.770Z,8.52
2023-01-09T08:13:11.782Z,8.48
2023-01-09T08:15:38.731Z,7.80
2023-01-09T08:18:06.228Z,6.07
2023-01-09T08:20:33.204Z,5.85
2023-01-09T08:23:00.115Z,5.68
2023-01-09T08:25:27.039Z,7.32
2023-01-09T08:27:53.889Z,8.10
2023-01-09T08:30:23.655Z,7.30
2023-01-09T08:32:54.254Z,8.90
2023-01-09T08:35:23.775Z,12.35
2023-01-09T08:37:54.263Z,8.45
2023-01-09T08:40:23.828Z,7.03
2023-01-09T08:43:12.176Z,9.57
2023-01-09T08:46:00.155Z,7.70
2023-01-09T08:48:27.015Z,8.07
2023-01-09T08:50:54.309Z,8.02
2023-01-09T08:53:24.222Z,12.98
2023-01-09T08:55:51.868Z,6.80
2023-01-09T08:58:18.456Z,13.77
2023-01-09T09:00:45.231Z,9.73
2023-01-09T09:03:12.305Z,8.43
2023-01-09T09:05:39.154Z,11.27
2023-01-09T09:08:07.095Z,11.10
2023-01-09T09:10:33.980Z,6.63
2023-01-09T09:13:01.769Z,15.05
2023-01-09T09:15:29.590Z,14.88
2023-01-09T09:17:58.755Z,9.65
2023-01-09T09:20:28.572Z,9.20
2023-01-09T09:22:55.481Z,11.10
2023-01-09T09:25:23.085Z,12.77
2023-01-09T09:27:50.368Z,15.55
2023-01-09T09:30:19.085Z,10.77
2023-01-09T09:32:46.584Z,13.55
2023-01-09T09:35:13.511Z,11.80
2023-01-09T09:37:40.431Z,10.60
2023-01-09T09:40:18.700Z,11.27
2023-01-09T09:43:35.127Z,9.15
2023-01-09T09:46:23.200Z,19.17
2023-01-09T09:48:59.395Z,13.80
2023-01-09T09:51:31.397Z,10.85
2023-01-09T09:54:02.237Z,8.68
2023-01-09T09:56:34.693Z,12.57
2023-01-09T09:59:06.734Z,9.80
2023-01-09T10:01:41.082Z,8.25
2023-01-09T10:04:14.290Z,8.90
2023-01-09T10:06:44.611Z,7.53
2023-01-09T10:09:34.140Z,11.68
2023-01-09T10:12:30.614Z,12.23
2023-01-09T10:15:00.090Z,11.77
2023-01-09T10:17:44.314Z,8.98
2023-01-09T10:20:35.890Z,13.57
2023-01-09T10:23:02.462Z,10.73
2023-01-09T10:25:45.112Z,14.57
2023-01-09T10:28:33.734Z,10.52
2023-01-09T10:31:21.642Z,14.23
2023-01-09T10:34:22.994Z,10.93
2023-01-09T10:36:49.648Z,13.00
2023-01-09T10:39:24.768Z,12.38
2023-01-09T10:41:57.625Z,9.43
2023-01-09T10:44:38.745Z,11.77
2023-01-09T10:47:17.301Z,12.70
2023-01-09T10:49:45.888Z,15.07
2023-01-09T10:52:19.482Z,11.93
2023-01-09T10:54:55.843Z,10.93
2023-01-09T10:57:40.298Z,14.77
2023-01-09T11:00:19.280Z,8.10
2023-01-09T11:02:47.285Z,18.27
2023-01-09T11:05:24.748Z,9.70
2023-01-09T11:07:57.371Z,12.25
2023-01-09T11:10:47.276Z,9.70
2023-01-09T11:13:26.514Z,19.73
2023-01-09T11:16:17.761Z,21.75
2023-01-09T11:18:52.066Z,12.00
2023-01-09T11:21:32.833Z,14.82
2023-01-09T11:24:18.552Z,14.02
2023-01-09T11:26:50.445Z,15.07
2023-01-09T11:29:26.999Z,12.57
2023-01-09T11:31:58.873Z,12.10
2023-01-09T11:34:32.126Z,13.57
2023-01-09T11:37:09.726Z,18.92
2023-01-09T11:39:41.318Z,11.07
2023-01-09T11:42:20.007Z,19.15
2023-01-09T11:44:47.103Z,12.10
2023-01-09T11:47:39.205Z,15.27
2023-01-09T11:50:20.711Z,19.77
2023-01-09T11:53:13.373Z,9.32
2023-01-09T11:55:42.860Z,13.32
2023-01-09T11:58:16.733Z,12.07
2023-01-09T12:01:04.371Z,10.75
2023-01-09T12:03:34.010Z,15.43
2023-01-09T12:06:25.608Z,10.88
2023-01-09T12:09:02.356Z,13.13
2023-01-09T12:11:34.259Z,12.77
2023-01-09T12:14:24.042Z,10.27
2023-01-09T12:17:04.667Z,11.73
2023-01-09T12:19:59.090Z,12.77
2023-01-09T12:23:05.442Z,16.48
2023-01-09T12:25:35.035Z,13.82
2023-01-09T12:28:36.058Z,15.25
2023-01-09T12:31:58.201Z,14.40
2023-01-09T12:34:56.450Z,13.32
2023-01-09T12:37:43.590Z,10.65
2023-01-09T12:40:19.310Z,13.32
2023-01-09T12:42:58.508Z,11.30
2023-01-09T12:45:50.844Z,12.13
2023-01-09T12:48:35.311Z,15.15
2023-01-09T12:51:17.470Z,13.18
2023-01-09T12:53:51.404Z,17.73
2023-01-09T12:56:25.055Z,11.13
2023-01-09T12:59:00.524Z,12.75
2023-01-09T13:01:32.620Z,8.75
2023-01-09T13:04:24.346Z,14.05
2023-01-09T13:07:11.644Z,10.15
2023-01-09T13:10:07.829Z,7.05
2023-01-09T13:12:39.612Z,9.82
2023-01-09T13:15:27.995Z,8.05
2023-01-09T13:18:07.938Z,10.77
2023-01-09T13:20:39.683Z,12.57
2023-01-09T13:23:07.021Z,13.55
2023-01-09T13:25:44.056Z,13.77
2023-01-09T13:28:23.260Z,11.00
2023-01-09T13:31:24.123Z,13.73
2023-01-09T13:33:56.764Z,13.43
2023-01-09T13:36:33.131Z,10.98
2023-01-09T13:39:02.149Z,14.18
2023-01-09T13:41:48.556Z,17.27
2023-01-09T13:44:18.164Z,15.23
2023-01-09T13:46:47.694Z,14.48
2023-01-09T13:49:33.541Z,11.95
2023-01-09T13:52:05.137Z,10.93
2023-01-09T13:54:47.204Z,15.70
2023-01-09T13:57:19.933Z,23.35
2023-01-09T13:59:50.161Z,16.58
2023-01-09T14:02:35.315Z,16.73
2023-01-09T14:05:04.404Z,15.00
2023-01-09T14:07:33.820Z,13.55
2023-01-09T14:10:03.530Z,12.85
2023-01-09T14:12:41.599Z,10.07
2023-01-09T14:15:26.627Z,14.27
2023-01-09T14:18:24.680Z,16.83
2023-01-09T14:23:52.889Z,15.43
2023-01-09T14:26:41.562Z,11.77
2023-01-09T14:29:36.287Z,10.38
2023-01-09T14:32:29.789Z,9.95
2023-01-09T14:35:15.435Z,10.03
2023-01-09T14:37:43.551Z,8.05
2023-01-09T14:40:23.458Z,11.00
2023-01-09T14:42:54.743Z,9.40
2023-01-09T14:45:27.093Z,9.82
2023-01-09T14:48:03.181Z,7.82
2023-01-09T14:50:38.053Z,8.20
2023-01-09T14:53:12.433Z,5.68
2023-01-09T14:55:42.239Z,8.25
2023-01-09T14:58:12.876Z,5.93
2023-01-09T15:01:01.770Z,8.10
2023-01-09T15:03:46.635Z,7.07
2023-01-09T15:06:23.977Z,7.15
2023-01-09T15:09:02.353Z,9.20
2023-01-09T15:11:29.953Z,6.35
2023-01-09T15:14:00.171Z,13.27
2023-01-09T15:16:28.382Z,10.35
2023-01-09T15:19:02.270Z,15.65
2023-01-09T15:21:31.018Z,5.55
2023-01-09T15:24:28.645Z,8.32
2023-01-09T15:26:58.824Z,8.10
2023-01-09T15:29:26.771Z,7.20
2023-01-09T15:32:28.310Z,13.52
2023-01-09T15:34:56.842Z,7.90
2023-01-09T15:37:33.310Z,12.00
2023-01-09T15:40:05.234Z,6.13
2023-01-09T15:42:57.161Z,8.70
2023-01-09T15:45:41.529Z,8.35
2023-01-09T15:50:49.747Z,6.82
2023-01-09T15:53:20.087Z,7.80
2023-01-09T15:56:25.127Z,9.23
2023-01-09T15:58:55.603Z,12.63
2023-01-09T16:01:38.373Z,9.38
2023-01-09T16:04:12.563Z,11.82
2023-01-09T16:06:49.042Z,11.68
2023-01-09T16:09:17.320Z,10.77
2023-01-09T16:11:52.079Z,17.45
2023-01-09T16:14:41.893Z,11.40
2023-01-09T16:17:17.033Z,14.10
2023-01-09T16:19:50.149Z,10.68
2023-01-09T16:22:56.294Z,5.80
2023-01-09T16:25:34.938Z,13.48
2023-01-09T16:28:26.783Z,16.13
2023-01-09T16:30:57.143Z,16.90
2023-01-09T16:33:29.243Z,18.23
2023-01-09T16:35:58.371Z,15.05
2023-01-09T16:38:28.468Z,16.65
2023-01-09T16:41:24.013Z,14.48
2023-01-09T16:43:52.036Z,21.55
2023-01-09T16:46:21.032Z,15.73
2023-01-09T16:48:48.167Z,17.15
2023-01-09T16:51:22.811Z,19.25
2023-01-09T16:53:50.066Z,15.15
2023-01-09T16:56:23.629Z,21.27
2023-01-09T16:58:50.965Z,22.33
2023-01-09T17:01:18.200Z,23.90
2023-01-09T17:03:45.175Z,24.55
2023-01-09T17:06:32.264Z,13.77
2023-01-09T17:08:59.081Z,16.42
2023-01-09T17:11:31.988Z,14.98
2023-01-09T17:13:59.809Z,13.50
2023-01-09T17:16:28.027Z,15.95
2023-01-09T17:18:55.467Z,20.80
2023-01-09T17:21:25.080Z,11.70
2023-01-09T17:24:10.599Z,11.90
2023-01-09T17:26:57.610Z,14.07
2023-01-09T17:29:24.650Z,11.07
2023-01-09T17:31:51.323Z,10.95
2023-01-09T17:34:18.220Z,8.55
2023-01-09T17:36:45.332Z,8.85
2023-01-09T17:39:17.148Z,7.78
2023-01-09T17:41:44.300Z,11.50
2023-01-09T17:44:12.049Z,7.78
2023-01-09T17:46:43.952Z,9.70
2023-01-09T17:49:17.627Z,8.63
2023-01-09T17:51:44.584Z,12.07
2023-01-09T17:54:11.820Z,6.88
2023-01-09T17:56:42.599Z,11.45
2023-01-09T17:59:14.149Z,10.45
2023-01-09T18:01:41.909Z,13.43
2023-01-09T18:04:09.838Z,12.98
2023-01-09T18:06:37.129Z,9.93
2023-01-09T18:09:05.213Z,12.48
2023-01-09T18:11:32.167Z,8.45
2023-01-09T18:13:59.535Z,18.42
2023-01-09T18:16:28.646Z,14.55
2023-01-09T18:18:59.310Z,10.80
2023-01-09T18:21:28.040Z,12.40
2023-01-09T18:23:59.352Z,7.13
2023-01-09T18:26:42.301Z,10.13
2023-01-09T18:29:11.594Z,11.77
2023-01-09T18:31:38.563Z,3.40
2023-01-09T18:34:07.379Z,3.67
2023-01-09T18:36:34.206Z,8.15
2023-01-09T18:39:03.179Z,8.02
2023-01-09T18:41:31.322Z,36.72
2023-01-09T18:44:00.548Z,6.25
2023-01-09T18:46:31.980Z,4.43
2023-01-09T18:49:04.445Z,5.00
2023-01-09T18:51:36.772Z,11.45
2023-01-09T18:54:04.080Z,11.63
2023-01-09T18:56:30.961Z,14.07
2023-01-09T18:58:58.463Z,7.88
2023-01-09T19:01:27.911Z,8.82
2023-01-09T19:03:59.773Z,9.55
2023-01-09T19:06:28.308Z,11.43
2023-01-09T19:08:56.786Z,6.35
2023-01-09T19:11:27.467Z,14.68
2023-01-09T19:13:56.406Z,22.27
2023-01-09T19:16:23.435Z,10.25
2023-01-09T19:18:50.362Z,13.85
2023-01-09T19:21:20.549Z,11.90
2023-01-09T19:23:48.449Z,13.52
2023-01-09T19:26:20.586Z,9.38
2023-01-09T19:28:47.959Z,11.48
2023-01-09T19:31:14.931Z,11.80
2023-01-09T19:33:42.467Z,9.02
2023-01-09T19:36:10.229Z,10.90
2023-01-09T19:38:37.102Z,10.15
2023-01-09T19:41:17.834Z,13.55
2023-01-09T19:43:45.653Z,25.83
2023-01-09T19:46:18.606Z,16.23
2023-01-09T19:48:45.882Z,13.93
2023-01-09T19:51:13.802Z,40.10
2023-01-09T19:53:40.608Z,19.35
2023-01-09T19:56:15.649Z,18.50
2023-01-09T19:58:43.682Z,21.90
2023-01-09T20:01:14.913Z,28.15
2023-01-09T20:03:46.852Z,21.25
2023-01-09T20:06:19.050Z,22.83
2023-01-09T20:08:47.805Z,14.80
2023-01-09T20:11:15.672Z,21.13
2023-01-09T20:13:42.937Z,72.50
2023-01-09T20:16:19.672Z,29.70
2023-01-09T20:18:47.267Z,22.17
2023-01-09T20:21:21.673Z,14.30
2023-01-09T20:23:49.497Z,15.93
2023-01-09T20:26:17.177Z,19.98
2023-01-09T20:28:45.013Z,26.45
2023-01-09T20:31:13.572Z,19.92
2023-01-09T20:33:40.888Z,26.40
2023-01-09T20:36:09.950Z,23.33
2023-01-09T20:38:38.894Z,15.18
2023-01-09T20:41:23.119Z,16.77
2023-01-09T20:43:57.820Z,16.88
2023-01-09T20:46:29.813Z,20.42
2023-01-09T20:48:58.580Z,7.05
2023-01-09T20:51:28.650Z,16.38
2023-01-09T20:53:58.568Z,16.17
2023-01-09T20:56:32.741Z,9.15
2023-01-09T20:59:00.593Z,15.38
2023-01-09T21:01:28.446Z,13.73
2023-01-09T21:03:58.474Z,16.05
2023-01-09T21:06:27.747Z,17.25
2023-01-09T21:08:54.634Z,16.92
2023-01-09T21:11:22.229Z,13.70
2023-01-09T21:13:49.917Z,16.92
2023-01-09T21:16:20.153Z,12.75
2023-01-09T21:18:48.036Z,13.40
2023-01-09T21:21:21.424Z,18.33
2023-01-09T21:23:53.656Z,11.25
2023-01-09T21:26:24.485Z,16.17
2023-01-09T21:28:54.975Z,17.08
2023-01-09T21:31:33.209Z,14.98
2023-01-09T21:34:05.930Z,16.65
2023-01-09T21:36:32.942Z,12.95
2023-01-09T21:39:00.222Z,14.98
2023-01-09T21:41:46.899Z,10.30
2023-01-09T21:44:33.129Z,11.95
2023-01-09T21:47:01.334Z,12.00
2023-01-09T21:49:31.615Z,13.95
2023-01-09T21:51:58.780Z,10.93
2023-01-09T21:54:33.224Z,10.88
2023-01-09T21:57:00.797Z,14.68
2023-01-09T21:59:29.164Z,17.90
2023-01-09T22:01:56.417Z,13.27
2023-01-09T22:04:29.138Z,12.73
2023-01-09T22:06:56.592Z,12.80
2023-01-09T22:09:23.408Z,18.15
2023-01-09T22:11:50.116Z,15.88
2023-01-09T22:14:18.463Z,16.88
2023-01-09T22:16:45.796Z,13.98
2023-01-09T22:19:13.765Z,19.67
2023-01-09T22:21:40.453Z,14.32
2023-01-09T22:24:07.727Z,14.82
2023-01-09T22:26:35.409Z,18.80
2023-01-09T22:29:02.161Z,20.05
2023-01-09T22:31:29.558Z,12.98
2023-01-09T22:34:02.498Z,19.70
2023-01-09T22:36:31.106Z,19.87
2023-01-09T22:38:59.655Z,14.65
2023-01-09T22:41:31.867Z,14.63
2023-01-09T22:43:59.231Z,11.40
2023-01-09T22:46:26.597Z,12.93
2023-01-09T22:48:54.581Z,23.80
2023-01-09T22:51:21.831Z,19.00
2023-01-09T22:53:50.203Z,11.50
2023-01-09T22:56:19.727Z,18.90
2023-01-09T22:58:51.726Z,22.80
2023-01-09T23:01:19.425Z,17.98
2023-01-09T23:03:47.101Z,14.52
2023-01-09T23:06:16.893Z,25.20
2023-01-09T23:08:44.443Z,20.92
2023-01-09T23:11:18.015Z,19.30
2023-01-09T23:13:44.889Z,16.42
2023-01-09T23:16:11.801Z,12.23
2023-01-09T23:18:38.571Z,15.95
2023-01-09T23:21:06.693Z,14.38
2023-01-09T23:23:33.354Z,16.15
2023-01-09T23:26:04.854Z,19.42
2023-01-09T23:28:34.494Z,19.45
2023-01-09T23:31:01.239Z,19.70
2023-01-09T23:33:27.950Z,18.15
2023-01-09T23:35:54.701Z,14.85
2023-01-09T23:38:21.621Z,13.07
2023-01-09T23:40:48.291Z,18.65
2023-01-09T23:43:15.409Z,20.23
2023-01-09T23:45:45.285Z,15.18
2023-01-09T23:48:15.129Z,18.88
2023-01-09T23:50:53.398Z,15.55
2023-01-09T23:53:22.141Z,16.20
2023-01-09T23:55:49.865Z,8.40
2023-01-09T23:58:16.975Z,9.82
